sensor_id;sensor_type;location;lat;lon;timestamp;temperature;humidity
23815;DHT22;12088;53.078;8.720;2022-10-17T00:00:45;12.40;99.90
23815;DHT22;12088;53.078;8.720;2022-10-17T00:03:11;12.50;99.90
23815;DHT22;12088;53.078;8.720;2022-10-17T00:05:41;12.50;99.90
23815;DHT22;12088;53.078;8.720;2022-10-17T00:08:07;12.60;99.90
23815;DHT22;12088;53.078;8.720;2022-10-17T00:10:32;12.70;99.90
23815;DHT22;12088;53.078;8.720;2022-10-17T00:12:58;12.70;99.90
23815;DHT22;12088;53.078;8.720;2022-10-17T00:15:23;12.70;99.90
23815;DHT22;12088;53.078;8.720;2022-10-17T00:17:49;12.70;99.90
23815;DHT22;12088;53.078;8.720;2022-10-17T00:20:15;12.60;99.90
23815;DHT22;12088;53.078;8.720;2022-10-17T00:22:40;12.60;99.90
23815;DHT22;12088;53.078;8.720;2022-10-17T00:25:07;12.60;99.90
23815;DHT22;12088;53.078;8.720;2022-10-17T00:27:37;12.60;99.90
23815;DHT22;12088;53.078;8.720;2022-10-17T00:30:04;12.50;99.90
23815;DHT22;12088;53.078;8.720;2022-10-17T00:32:30;12.50;99.90
23815;DHT22;12088;53.078;8.720;2022-10-17T00:34:57;12.50;99.90
23815;DHT22;12088;53.078;8.720;2022-10-17T00:37:22;12.60;99.90
23815;DHT22;12088;53.078;8.720;2022-10-17T00:39:48;12.50;99.90
23815;DHT22;12088;53.078;8.720;2022-10-17T00:42:14;12.40;99.90
23815;DHT22;12088;53.078;8.720;2022-10-17T00:47:09;12.20;99.90
23815;DHT22;12088;53.078;8.720;2022-10-17T00:49:36;12.20;99.90
23815;DHT22;12088;53.078;8.720;2022-10-17T00:52:06;12.20;99.90
23815;DHT22;12088;53.078;8.720;2022-10-17T00:54:35;12.10;99.90
23815;DHT22;12088;53.078;8.720;2022-10-17T00:57:01;12.10;99.90
23815;DHT22;12088;53.078;8.720;2022-10-17T00:59:28;12.10;99.90
23815;DHT22;12088;53.078;8.720;2022-10-17T01:02:04;12.20;99.90
23815;DHT22;12088;53.078;8.720;2022-10-17T01:04:30;12.20;99.90
23815;DHT22;12088;53.078;8.720;2022-10-17T01:06:55;12.10;99.90
23815;DHT22;12088;53.078;8.720;2022-10-17T01:09:21;12.20;99.90
23815;DHT22;12088;53.078;8.720;2022-10-17T01:11:58;12.20;99.90
23815;DHT22;12088;53.078;8.720;2022-10-17T01:17:27;12.30;99.90
23815;DHT22;12088;53.078;8.720;2022-10-17T01:20:27;12.40;99.90
23815;DHT22;12088;53.078;8.720;2022-10-17T01:23:12;12.50;99.90
23815;DHT22;12088;53.078;8.720;2022-10-17T01:25:51;12.60;99.90
23815;DHT22;12088;53.078;8.720;2022-10-17T01:33:59;12.80;99.90
23815;DHT22;12088;53.078;8.720;2022-10-17T01:44:54;12.80;99.90
23815;DHT22;12088;53.078;8.720;2022-10-17T01:47:25;12.80;99.90
23815;DHT22;12088;53.078;8.720;2022-10-17T01:49:54;12.70;99.90
23815;DHT22;12088;53.078;8.720;2022-10-17T01:52:24;12.70;99.90
23815;DHT22;12088;53.078;8.720;2022-10-17T01:54:55;12.70;99.90
23815;DHT22;12088;53.078;8.720;2022-10-17T01:57:29;12.70;99.90
23815;DHT22;12088;53.078;8.720;2022-10-17T01:59:56;12.70;99.90
23815;DHT22;12088;53.078;8.720;2022-10-17T02:02:23;12.70;99.90
23815;DHT22;12088;53.078;8.720;2022-10-17T02:04:50;12.60;99.90
23815;DHT22;12088;53.078;8.720;2022-10-17T02:07:16;12.60;99.90
23815;DHT22;12088;53.078;8.720;2022-10-17T02:09:42;12.60;99.90
23815;DHT22;12088;53.078;8.720;2022-10-17T02:12:39;12.50;99.90
23815;DHT22;12088;53.078;8.720;2022-10-17T02:15:19;12.50;99.90
23815;DHT22;12088;53.078;8.720;2022-10-17T02:17:57;12.40;99.90
23815;DHT22;12088;53.078;8.720;2022-10-17T02:20:36;12.40;99.90
23815;DHT22;12088;53.078;8.720;2022-10-17T02:23:12;12.40;99.90
23815;DHT22;12088;53.078;8.720;2022-10-17T02:25:56;12.40;99.90
23815;DHT22;12088;53.078;8.720;2022-10-17T02:33:57;12.20;99.90
23815;DHT22;12088;53.078;8.720;2022-10-17T02:36:36;12.10;99.90
23815;DHT22;12088;53.078;8.720;2022-10-17T02:39:05;12.10;99.90
23815;DHT22;12088;53.078;8.720;2022-10-17T02:41:32;12.10;99.90
23815;DHT22;12088;53.078;8.720;2022-10-17T02:43:58;12.00;99.90
23815;DHT22;12088;53.078;8.720;2022-10-17T02:46:26;12.00;99.90
23815;DHT22;12088;53.078;8.720;2022-10-17T02:48:57;11.90;99.90
23815;DHT22;12088;53.078;8.720;2022-10-17T02:54:16;11.90;99.90
23815;DHT22;12088;53.078;8.720;2022-10-17T02:56:50;11.90;99.90
23815;DHT22;12088;53.078;8.720;2022-10-17T02:59:20;11.90;99.90
23815;DHT22;12088;53.078;8.720;2022-10-17T03:01:48;11.80;99.90
23815;DHT22;12088;53.078;8.720;2022-10-17T03:04:15;11.80;99.90
23815;DHT22;12088;53.078;8.720;2022-10-17T03:06:41;11.70;99.90
23815;DHT22;12088;53.078;8.720;2022-10-17T03:09:07;11.70;99.90
23815;DHT22;12088;53.078;8.720;2022-10-17T03:11:33;11.70;99.90
23815;DHT22;12088;53.078;8.720;2022-10-17T03:13:59;11.70;99.90
23815;DHT22;12088;53.078;8.720;2022-10-17T03:16:24;11.70;99.90
23815;DHT22;12088;53.078;8.720;2022-10-17T03:18:50;11.70;99.90
23815;DHT22;12088;53.078;8.720;2022-10-17T03:21:15;11.70;99.90
23815;DHT22;12088;53.078;8.720;2022-10-17T03:23:41;11.80;99.90
23815;DHT22;12088;53.078;8.720;2022-10-17T03:26:07;11.90;99.90
23815;DHT22;12088;53.078;8.720;2022-10-17T03:28:33;11.80;99.90
23815;DHT22;12088;53.078;8.720;2022-10-17T03:30:58;11.80;99.90
23815;DHT22;12088;53.078;8.720;2022-10-17T03:33:24;11.70;99.90
23815;DHT22;12088;53.078;8.720;2022-10-17T03:35:49;11.70;99.90
23815;DHT22;12088;53.078;8.720;2022-10-17T03:38:15;11.70;99.90
23815;DHT22;12088;53.078;8.720;2022-10-17T03:40:40;11.80;99.90
23815;DHT22;12088;53.078;8.720;2022-10-17T03:43:06;11.80;99.90
23815;DHT22;12088;53.078;8.720;2022-10-17T03:45:31;12.10;99.90
23815;DHT22;12088;53.078;8.720;2022-10-17T03:47:58;12.30;99.90
23815;DHT22;12088;53.078;8.720;2022-10-17T03:50:23;12.40;99.90
23815;DHT22;12088;53.078;8.720;2022-10-17T03:52:49;12.40;99.90
23815;DHT22;12088;53.078;8.720;2022-10-17T03:55:15;12.40;99.90
23815;DHT22;12088;53.078;8.720;2022-10-17T03:57:41;12.40;99.90
23815;DHT22;12088;53.078;8.720;2022-10-17T04:00:07;12.40;99.90
23815;DHT22;12088;53.078;8.720;2022-10-17T04:02:32;12.40;99.90
23815;DHT22;12088;53.078;8.720;2022-10-17T04:05:00;12.40;99.90
23815;DHT22;12088;53.078;8.720;2022-10-17T04:07:25;12.40;99.90
23815;DHT22;12088;53.078;8.720;2022-10-17T04:09:51;12.40;99.90
23815;DHT22;12088;53.078;8.720;2022-10-17T04:12:17;12.30;99.90
23815;DHT22;12088;53.078;8.720;2022-10-17T04:14:42;12.20;99.90
23815;DHT22;12088;53.078;8.720;2022-10-17T04:17:08;12.20;99.90
23815;DHT22;12088;53.078;8.720;2022-10-17T04:19:34;12.10;99.90
23815;DHT22;12088;53.078;8.720;2022-10-17T04:21:59;12.00;99.90
23815;DHT22;12088;53.078;8.720;2022-10-17T04:24:25;11.90;99.90
23815;DHT22;12088;53.078;8.720;2022-10-17T04:26:51;11.90;99.90
23815;DHT22;12088;53.078;8.720;2022-10-17T04:29:17;12.00;99.90
23815;DHT22;12088;53.078;8.720;2022-10-17T04:31:42;12.00;99.90
23815;DHT22;12088;53.078;8.720;2022-10-17T04:34:08;12.00;99.90
23815;DHT22;12088;53.078;8.720;2022-10-17T04:36:33;12.10;99.90
23815;DHT22;12088;53.078;8.720;2022-10-17T04:39:00;12.10;99.90
23815;DHT22;12088;53.078;8.720;2022-10-17T04:41:29;12.10;99.90
23815;DHT22;12088;53.078;8.720;2022-10-17T04:43:54;12.20;99.90
23815;DHT22;12088;53.078;8.720;2022-10-17T04:46:20;12.20;99.90
23815;DHT22;12088;53.078;8.720;2022-10-17T04:48:45;12.20;99.90
23815;DHT22;12088;53.078;8.720;2022-10-17T04:51:13;12.20;99.90
23815;DHT22;12088;53.078;8.720;2022-10-17T04:53:40;12.30;99.90
23815;DHT22;12088;53.078;8.720;2022-10-17T04:56:08;12.30;99.90
23815;DHT22;12088;53.078;8.720;2022-10-17T04:58:34;12.30;99.90
23815;DHT22;12088;53.078;8.720;2022-10-17T05:01:07;12.30;99.90
23815;DHT22;12088;53.078;8.720;2022-10-17T05:03:33;12.30;99.90
23815;DHT22;12088;53.078;8.720;2022-10-17T05:06:03;12.30;99.90
23815;DHT22;12088;53.078;8.720;2022-10-17T05:08:29;12.30;99.90
23815;DHT22;12088;53.078;8.720;2022-10-17T05:10:54;12.30;99.90
23815;DHT22;12088;53.078;8.720;2022-10-17T05:13:20;12.30;99.90
23815;DHT22;12088;53.078;8.720;2022-10-17T05:15:45;12.20;99.90
23815;DHT22;12088;53.078;8.720;2022-10-17T05:18:11;12.30;99.90
23815;DHT22;12088;53.078;8.720;2022-10-17T05:20:37;12.30;99.90
23815;DHT22;12088;53.078;8.720;2022-10-17T05:23:02;12.30;99.90
23815;DHT22;12088;53.078;8.720;2022-10-17T05:25:28;12.30;99.90
23815;DHT22;12088;53.078;8.720;2022-10-17T05:27:54;12.30;99.90
23815;DHT22;12088;53.078;8.720;2022-10-17T05:30:19;12.20;99.90
23815;DHT22;12088;53.078;8.720;2022-10-17T05:32:45;12.30;99.90
23815;DHT22;12088;53.078;8.720;2022-10-17T05:35:10;12.30;99.90
23815;DHT22;12088;53.078;8.720;2022-10-17T05:37:36;12.30;99.90
23815;DHT22;12088;53.078;8.720;2022-10-17T05:40:02;12.30;99.90
23815;DHT22;12088;53.078;8.720;2022-10-17T05:42:28;12.20;99.90
23815;DHT22;12088;53.078;8.720;2022-10-17T05:44:53;12.20;99.90
23815;DHT22;12088;53.078;8.720;2022-10-17T05:47:19;12.30;99.90
23815;DHT22;12088;53.078;8.720;2022-10-17T05:49:44;12.20;99.90
23815;DHT22;12088;53.078;8.720;2022-10-17T05:52:10;12.20;99.90
23815;DHT22;12088;53.078;8.720;2022-10-17T05:54:35;12.30;99.90
23815;DHT22;12088;53.078;8.720;2022-10-17T05:57:01;12.40;99.90
23815;DHT22;12088;53.078;8.720;2022-10-17T05:59:27;12.40;99.90
23815;DHT22;12088;53.078;8.720;2022-10-17T06:01:54;12.40;99.90
23815;DHT22;12088;53.078;8.720;2022-10-17T06:04:19;12.30;99.90
23815;DHT22;12088;53.078;8.720;2022-10-17T06:06:45;12.30;99.90
23815;DHT22;12088;53.078;8.720;2022-10-17T06:09:11;12.30;99.90
23815;DHT22;12088;53.078;8.720;2022-10-17T06:11:36;12.40;99.90
23815;DHT22;12088;53.078;8.720;2022-10-17T06:14:02;12.40;99.90
23815;DHT22;12088;53.078;8.720;2022-10-17T06:16:28;12.60;99.90
23815;DHT22;12088;53.078;8.720;2022-10-17T06:18:53;12.60;99.90
23815;DHT22;12088;53.078;8.720;2022-10-17T06:21:23;12.60;99.90
23815;DHT22;12088;53.078;8.720;2022-10-17T06:23:48;12.70;99.90
23815;DHT22;12088;53.078;8.720;2022-10-17T06:26:14;12.70;99.90
23815;DHT22;12088;53.078;8.720;2022-10-17T06:28:40;12.70;99.90
23815;DHT22;12088;53.078;8.720;2022-10-17T06:31:07;12.80;99.90
23815;DHT22;12088;53.078;8.720;2022-10-17T06:33:33;12.90;99.90
23815;DHT22;12088;53.078;8.720;2022-10-17T06:35:58;12.90;99.90
23815;DHT22;12088;53.078;8.720;2022-10-17T06:38:24;13.00;99.90
23815;DHT22;12088;53.078;8.720;2022-10-17T06:40:49;13.00;99.90
23815;DHT22;12088;53.078;8.720;2022-10-17T06:43:15;13.00;99.90
23815;DHT22;12088;53.078;8.720;2022-10-17T06:45:41;13.10;99.90
23815;DHT22;12088;53.078;8.720;2022-10-17T06:48:07;13.10;99.90
23815;DHT22;12088;53.078;8.720;2022-10-17T06:50:33;13.20;99.90
23815;DHT22;12088;53.078;8.720;2022-10-17T06:52:59;13.20;99.90
23815;DHT22;12088;53.078;8.720;2022-10-17T06:55:24;13.20;99.90
23815;DHT22;12088;53.078;8.720;2022-10-17T06:57:50;13.40;99.90
23815;DHT22;12088;53.078;8.720;2022-10-17T07:00:16;13.50;99.90
23815;DHT22;12088;53.078;8.720;2022-10-17T07:02:42;13.70;99.90
23815;DHT22;12088;53.078;8.720;2022-10-17T07:05:08;13.70;99.90
23815;DHT22;12088;53.078;8.720;2022-10-17T07:07:34;13.70;99.90
23815;DHT22;12088;53.078;8.720;2022-10-17T07:09:59;13.80;99.90
23815;DHT22;12088;53.078;8.720;2022-10-17T07:12:25;13.90;99.90
23815;DHT22;12088;53.078;8.720;2022-10-17T07:14:51;14.00;99.90
23815;DHT22;12088;53.078;8.720;2022-10-17T07:17:17;14.10;99.90
23815;DHT22;12088;53.078;8.720;2022-10-17T07:19:43;14.10;99.90
23815;DHT22;12088;53.078;8.720;2022-10-17T07:22:09;14.10;99.90
23815;DHT22;12088;53.078;8.720;2022-10-17T07:24:35;14.20;99.90
23815;DHT22;12088;53.078;8.720;2022-10-17T07:27:00;14.30;99.90
23815;DHT22;12088;53.078;8.720;2022-10-17T07:29:26;14.50;99.90
23815;DHT22;12088;53.078;8.720;2022-10-17T07:31:51;14.60;99.90
23815;DHT22;12088;53.078;8.720;2022-10-17T07:34:17;14.60;99.90
23815;DHT22;12088;53.078;8.720;2022-10-17T07:36:44;14.60;99.90
23815;DHT22;12088;53.078;8.720;2022-10-17T07:39:10;14.60;99.90
23815;DHT22;12088;53.078;8.720;2022-10-17T07:41:35;14.60;99.90
23815;DHT22;12088;53.078;8.720;2022-10-17T07:44:01;14.70;99.90
23815;DHT22;12088;53.078;8.720;2022-10-17T07:46:26;14.70;99.90
23815;DHT22;12088;53.078;8.720;2022-10-17T07:48:52;14.70;99.90
23815;DHT22;12088;53.078;8.720;2022-10-17T07:51:17;14.80;99.90
23815;DHT22;12088;53.078;8.720;2022-10-17T07:53:44;14.70;99.90
23815;DHT22;12088;53.078;8.720;2022-10-17T07:56:10;14.80;99.90
23815;DHT22;12088;53.078;8.720;2022-10-17T07:58:36;14.90;99.90
23815;DHT22;12088;53.078;8.720;2022-10-17T08:01:07;15.00;99.90
23815;DHT22;12088;53.078;8.720;2022-10-17T08:03:35;15.10;99.90
23815;DHT22;12088;53.078;8.720;2022-10-17T08:06:01;15.30;99.90
23815;DHT22;12088;53.078;8.720;2022-10-17T08:08:28;15.60;99.90
23815;DHT22;12088;53.078;8.720;2022-10-17T08:10:55;15.70;99.90
23815;DHT22;12088;53.078;8.720;2022-10-17T08:13:25;15.70;99.90
23815;DHT22;12088;53.078;8.720;2022-10-17T08:15:50;15.80;99.90
23815;DHT22;12088;53.078;8.720;2022-10-17T08:18:16;15.70;99.90
23815;DHT22;12088;53.078;8.720;2022-10-17T08:20:42;15.80;99.90
23815;DHT22;12088;53.078;8.720;2022-10-17T08:23:08;16.10;99.90
23815;DHT22;12088;53.078;8.720;2022-10-17T08:25:34;16.30;99.90
23815;DHT22;12088;53.078;8.720;2022-10-17T08:28:01;16.60;99.90
23815;DHT22;12088;53.078;8.720;2022-10-17T08:30:27;16.90;99.90
23815;DHT22;12088;53.078;8.720;2022-10-17T08:32:55;17.00;99.90
23815;DHT22;12088;53.078;8.720;2022-10-17T08:35:21;17.50;99.90
23815;DHT22;12088;53.078;8.720;2022-10-17T08:37:46;17.40;99.90
23815;DHT22;12088;53.078;8.720;2022-10-17T08:40:18;17.70;99.90
23815;DHT22;12088;53.078;8.720;2022-10-17T08:43:16;18.00;99.90
23815;DHT22;12088;53.078;8.720;2022-10-17T08:45:48;18.50;99.90
23815;DHT22;12088;53.078;8.720;2022-10-17T08:48:18;18.60;99.90
23815;DHT22;12088;53.078;8.720;2022-10-17T08:50:58;18.70;99.90
23815;DHT22;12088;53.078;8.720;2022-10-17T08:53:34;19.00;99.90
23815;DHT22;12088;53.078;8.720;2022-10-17T08:56:06;19.20;99.90
23815;DHT22;12088;53.078;8.720;2022-10-17T08:58:37;19.20;99.90
23815;DHT22;12088;53.078;8.720;2022-10-17T09:04:25;19.60;99.90
23815;DHT22;12088;53.078;8.720;2022-10-17T09:07:18;20.60;99.90
23815;DHT22;12088;53.078;8.720;2022-10-17T09:10:06;21.30;99.90
23815;DHT22;12088;53.078;8.720;2022-10-17T09:15:59;21.10;99.90
23815;DHT22;12088;53.078;8.720;2022-10-17T09:18:32;20.60;99.90
23815;DHT22;12088;53.078;8.720;2022-10-17T09:21:39;20.30;99.90
23815;DHT22;12088;53.078;8.720;2022-10-17T09:24:13;19.80;99.90
23815;DHT22;12088;53.078;8.720;2022-10-17T09:26:39;19.80;99.90
23815;DHT22;12088;53.078;8.720;2022-10-17T09:29:14;20.20;99.90
23815;DHT22;12088;53.078;8.720;2022-10-17T09:31:46;20.40;99.90
23815;DHT22;12088;53.078;8.720;2022-10-17T09:34:15;20.50;99.90
23815;DHT22;12088;53.078;8.720;2022-10-17T09:36:40;21.00;99.90
23815;DHT22;12088;53.078;8.720;2022-10-17T09:39:15;21.10;99.90
23815;DHT22;12088;53.078;8.720;2022-10-17T09:41:50;21.10;99.90
23815;DHT22;12088;53.078;8.720;2022-10-17T09:44:27;21.20;99.90
23815;DHT22;12088;53.078;8.720;2022-10-17T09:47:20;21.30;99.90
23815;DHT22;12088;53.078;8.720;2022-10-17T09:49:48;21.30;99.90
23815;DHT22;12088;53.078;8.720;2022-10-17T09:52:29;21.80;99.90
23815;DHT22;12088;53.078;8.720;2022-10-17T09:55:16;21.40;99.90
23815;DHT22;12088;53.078;8.720;2022-10-17T09:58:02;21.30;99.90
23815;DHT22;12088;53.078;8.720;2022-10-17T10:05:44;20.80;99.90
23815;DHT22;12088;53.078;8.720;2022-10-17T10:08:23;20.60;99.90
23815;DHT22;12088;53.078;8.720;2022-10-17T10:11:03;20.50;99.90
23815;DHT22;12088;53.078;8.720;2022-10-17T10:13:31;20.10;99.90
23815;DHT22;12088;53.078;8.720;2022-10-17T10:16:13;19.90;99.90
23815;DHT22;12088;53.078;8.720;2022-10-17T10:18:39;19.60;99.90
23815;DHT22;12088;53.078;8.720;2022-10-17T10:21:13;19.30;99.90
23815;DHT22;12088;53.078;8.720;2022-10-17T10:23:42;19.40;99.90
23815;DHT22;12088;53.078;8.720;2022-10-17T10:26:21;19.40;99.90
23815;DHT22;12088;53.078;8.720;2022-10-17T10:28:59;19.60;99.90
23815;DHT22;12088;53.078;8.720;2022-10-17T10:31:35;19.70;99.90
23815;DHT22;12088;53.078;8.720;2022-10-17T10:34:19;19.90;99.90
23815;DHT22;12088;53.078;8.720;2022-10-17T10:37:16;20.10;99.90
23815;DHT22;12088;53.078;8.720;2022-10-17T10:39:55;20.30;99.90
23815;DHT22;12088;53.078;8.720;2022-10-17T10:42:25;20.30;99.90
23815;DHT22;12088;53.078;8.720;2022-10-17T10:44:56;20.30;99.90
23815;DHT22;12088;53.078;8.720;2022-10-17T10:47:29;20.00;99.90
23815;DHT22;12088;53.078;8.720;2022-10-17T10:50:21;19.70;99.90
23815;DHT22;12088;53.078;8.720;2022-10-17T10:53:09;19.40;99.90
23815;DHT22;12088;53.078;8.720;2022-10-17T10:56:00;19.20;99.90
23815;DHT22;12088;53.078;8.720;2022-10-17T11:01:24;18.50;99.90
23815;DHT22;12088;53.078;8.720;2022-10-17T11:06:54;18.00;99.90
23815;DHT22;12088;53.078;8.720;2022-10-17T11:12:32;17.80;99.90
23815;DHT22;12088;53.078;8.720;2022-10-17T11:18:00;17.90;99.90
23815;DHT22;12088;53.078;8.720;2022-10-17T11:20:35;17.90;99.90
23815;DHT22;12088;53.078;8.720;2022-10-17T11:25:45;17.60;99.90
23815;DHT22;12088;53.078;8.720;2022-10-17T11:28:17;17.10;99.90
23815;DHT22;12088;53.078;8.720;2022-10-17T11:31:11;17.10;99.90
23815;DHT22;12088;53.078;8.720;2022-10-17T11:33:51;17.30;99.90
23815;DHT22;12088;53.078;8.720;2022-10-17T11:36:21;17.30;99.90
23815;DHT22;12088;53.078;8.720;2022-10-17T11:38:55;17.30;99.90
23815;DHT22;12088;53.078;8.720;2022-10-17T11:41:31;17.10;99.90
23815;DHT22;12088;53.078;8.720;2022-10-17T11:49:50;17.40;99.90
23815;DHT22;12088;53.078;8.720;2022-10-17T11:55:22;17.60;99.90
23815;DHT22;12088;53.078;8.720;2022-10-17T11:58:08;17.50;99.90
23815;DHT22;12088;53.078;8.720;2022-10-17T12:12:39;17.30;99.90
23815;DHT22;12088;53.078;8.720;2022-10-17T12:17:59;17.20;99.90
23815;DHT22;12088;53.078;8.720;2022-10-17T12:25:34;17.10;99.90
23815;DHT22;12088;53.078;8.720;2022-10-17T12:28:14;17.20;99.90
23815;DHT22;12088;53.078;8.720;2022-10-17T12:30:52;17.30;99.90
23815;DHT22;12088;53.078;8.720;2022-10-17T12:46:57;17.30;99.90
23815;DHT22;12088;53.078;8.720;2022-10-17T12:49:47;17.50;99.90
23815;DHT22;12088;53.078;8.720;2022-10-17T12:52:26;17.30;99.90
23815;DHT22;12088;53.078;8.720;2022-10-17T12:55:00;17.40;99.90
23815;DHT22;12088;53.078;8.720;2022-10-17T13:02:52;17.30;99.90
23815;DHT22;12088;53.078;8.720;2022-10-17T13:05:34;17.20;99.90
23815;DHT22;12088;53.078;8.720;2022-10-17T13:08:03;17.30;99.90
23815;DHT22;12088;53.078;8.720;2022-10-17T13:10:32;17.30;99.90
23815;DHT22;12088;53.078;8.720;2022-10-17T13:15:59;17.10;99.90
23815;DHT22;12088;53.078;8.720;2022-10-17T13:18:27;17.10;99.90
23815;DHT22;12088;53.078;8.720;2022-10-17T13:21:22;17.10;99.90
23815;DHT22;12088;53.078;8.720;2022-10-17T13:23:48;17.20;99.90
23815;DHT22;12088;53.078;8.720;2022-10-17T13:28:48;17.30;99.90
23815;DHT22;12088;53.078;8.720;2022-10-17T13:31:36;17.30;99.90
23815;DHT22;12088;53.078;8.720;2022-10-17T13:34:05;17.30;99.90
23815;DHT22;12088;53.078;8.720;2022-10-17T13:36:32;17.20;99.90
23815;DHT22;12088;53.078;8.720;2022-10-17T13:39:05;17.20;99.90
23815;DHT22;12088;53.078;8.720;2022-10-17T13:41:32;17.30;99.90
23815;DHT22;12088;53.078;8.720;2022-10-17T13:44:01;17.30;99.90
23815;DHT22;12088;53.078;8.720;2022-10-17T13:46:29;17.20;99.90
23815;DHT22;12088;53.078;8.720;2022-10-17T13:48:57;17.30;99.90
23815;DHT22;12088;53.078;8.720;2022-10-17T13:51:25;17.20;99.90
23815;DHT22;12088;53.078;8.720;2022-10-17T13:53:52;17.30;99.90
23815;DHT22;12088;53.078;8.720;2022-10-17T13:56:24;17.20;99.90
23815;DHT22;12088;53.078;8.720;2022-10-17T13:58:59;17.30;99.90
23815;DHT22;12088;53.078;8.720;2022-10-17T14:01:27;17.30;99.90
23815;DHT22;12088;53.078;8.720;2022-10-17T14:03:53;17.20;99.90
23815;DHT22;12088;53.078;8.720;2022-10-17T14:06:24;17.30;99.90
23815;DHT22;12088;53.078;8.720;2022-10-17T14:08:57;17.20;99.90
23815;DHT22;12088;53.078;8.720;2022-10-17T14:11:39;17.30;99.90
23815;DHT22;12088;53.078;8.720;2022-10-17T14:14:14;17.20;99.90
23815;DHT22;12088;53.078;8.720;2022-10-17T14:16:42;17.20;99.90
23815;DHT22;12088;53.078;8.720;2022-10-17T14:19:28;17.10;99.90
23815;DHT22;12088;53.078;8.720;2022-10-17T14:22:14;17.10;99.90
23815;DHT22;12088;53.078;8.720;2022-10-17T14:24:40;17.10;99.90
23815;DHT22;12088;53.078;8.720;2022-10-17T14:27:35;17.00;99.90
23815;DHT22;12088;53.078;8.720;2022-10-17T14:32:55;17.00;99.90
23815;DHT22;12088;53.078;8.720;2022-10-17T14:35:21;17.10;99.90
23815;DHT22;12088;53.078;8.720;2022-10-17T14:37:49;17.00;99.90
23815;DHT22;12088;53.078;8.720;2022-10-17T14:40:18;17.00;99.90
23815;DHT22;12088;53.078;8.720;2022-10-17T14:42:45;17.00;99.90
23815;DHT22;12088;53.078;8.720;2022-10-17T14:45:34;17.10;99.90
23815;DHT22;12088;53.078;8.720;2022-10-17T14:48:21;17.00;99.90
23815;DHT22;12088;53.078;8.720;2022-10-17T14:51:17;17.10;99.90
23815;DHT22;12088;53.078;8.720;2022-10-17T14:56:40;17.00;99.90
23815;DHT22;12088;53.078;8.720;2022-10-17T14:59:06;16.90;99.90
23815;DHT22;12088;53.078;8.720;2022-10-17T15:01:33;17.10;99.90
23815;DHT22;12088;53.078;8.720;2022-10-17T15:03:59;17.30;99.90
23815;DHT22;12088;53.078;8.720;2022-10-17T15:06:31;17.20;99.90
23815;DHT22;12088;53.078;8.720;2022-10-17T15:08:57;17.20;99.90
23815;DHT22;12088;53.078;8.720;2022-10-17T15:11:23;17.00;99.90
23815;DHT22;12088;53.078;8.720;2022-10-17T15:13:49;17.20;99.90
23815;DHT22;12088;53.078;8.720;2022-10-17T15:18:47;16.90;99.90
23815;DHT22;12088;53.078;8.720;2022-10-17T15:21:17;17.00;99.90
23815;DHT22;12088;53.078;8.720;2022-10-17T15:23:42;17.00;99.90
23815;DHT22;12088;53.078;8.720;2022-10-17T15:26:17;16.90;99.90
23815;DHT22;12088;53.078;8.720;2022-10-17T15:28:44;16.90;99.90
23815;DHT22;12088;53.078;8.720;2022-10-17T15:31:11;17.00;99.90
23815;DHT22;12088;53.078;8.720;2022-10-17T15:33:37;17.00;99.90
23815;DHT22;12088;53.078;8.720;2022-10-17T15:36:03;16.80;99.90
23815;DHT22;12088;53.078;8.720;2022-10-17T15:38:29;16.90;99.90
23815;DHT22;12088;53.078;8.720;2022-10-17T15:40:55;16.90;99.90
23815;DHT22;12088;53.078;8.720;2022-10-17T15:43:20;16.90;99.90
23815;DHT22;12088;53.078;8.720;2022-10-17T15:45:46;16.60;99.90
23815;DHT22;12088;53.078;8.720;2022-10-17T15:48:18;16.90;99.90
23815;DHT22;12088;53.078;8.720;2022-10-17T15:50:46;16.60;99.90
23815;DHT22;12088;53.078;8.720;2022-10-17T15:53:12;16.90;99.90
23815;DHT22;12088;53.078;8.720;2022-10-17T15:55:37;16.60;99.90
23815;DHT22;12088;53.078;8.720;2022-10-17T15:58:03;16.60;99.90
23815;DHT22;12088;53.078;8.720;2022-10-17T16:00:29;16.80;99.90
23815;DHT22;12088;53.078;8.720;2022-10-17T16:02:54;16.80;99.90
23815;DHT22;12088;53.078;8.720;2022-10-17T16:05:23;16.60;99.90
23815;DHT22;12088;53.078;8.720;2022-10-17T16:07:53;16.50;99.90
23815;DHT22;12088;53.078;8.720;2022-10-17T16:10:20;16.70;99.90
23815;DHT22;12088;53.078;8.720;2022-10-17T16:12:46;16.60;99.90
23815;DHT22;12088;53.078;8.720;2022-10-17T16:15:18;16.50;99.90
23815;DHT22;12088;53.078;8.720;2022-10-17T16:17:46;16.60;99.90
23815;DHT22;12088;53.078;8.720;2022-10-17T16:20:12;16.70;99.90
23815;DHT22;12088;53.078;8.720;2022-10-17T16:22:39;16.50;99.90
23815;DHT22;12088;53.078;8.720;2022-10-17T16:25:20;16.70;99.90
23815;DHT22;12088;53.078;8.720;2022-10-17T16:27:48;16.50;99.90
23815;DHT22;12088;53.078;8.720;2022-10-17T16:30:14;16.50;99.90
23815;DHT22;12088;53.078;8.720;2022-10-17T16:32:40;16.60;99.90
23815;DHT22;12088;53.078;8.720;2022-10-17T16:35:06;16.50;99.90
23815;DHT22;12088;53.078;8.720;2022-10-17T16:37:32;16.50;99.90
23815;DHT22;12088;53.078;8.720;2022-10-17T16:40:00;16.60;99.90
23815;DHT22;12088;53.078;8.720;2022-10-17T16:42:26;16.50;99.90
23815;DHT22;12088;53.078;8.720;2022-10-17T16:44:51;16.50;99.90
23815;DHT22;12088;53.078;8.720;2022-10-17T16:47:17;16.50;99.90
23815;DHT22;12088;53.078;8.720;2022-10-17T16:49:43;16.40;99.90
23815;DHT22;12088;53.078;8.720;2022-10-17T16:52:09;16.40;99.90
23815;DHT22;12088;53.078;8.720;2022-10-17T16:54:35;16.60;99.90
23815;DHT22;12088;53.078;8.720;2022-10-17T16:57:02;16.50;99.90
23815;DHT22;12088;53.078;8.720;2022-10-17T16:59:28;16.50;99.90
23815;DHT22;12088;53.078;8.720;2022-10-17T17:01:53;16.40;99.90
23815;DHT22;12088;53.078;8.720;2022-10-17T17:04:19;16.40;99.90
23815;DHT22;12088;53.078;8.720;2022-10-17T17:06:45;16.40;99.90
23815;DHT22;12088;53.078;8.720;2022-10-17T17:09:10;16.40;99.90
23815;DHT22;12088;53.078;8.720;2022-10-17T17:11:37;16.60;99.90
23815;DHT22;12088;53.078;8.720;2022-10-17T17:14:03;16.60;99.90
23815;DHT22;12088;53.078;8.720;2022-10-17T17:16:30;16.40;99.90
23815;DHT22;12088;53.078;8.720;2022-10-17T17:19:04;16.50;99.90
23815;DHT22;12088;53.078;8.720;2022-10-17T17:21:30;16.40;99.90
23815;DHT22;12088;53.078;8.720;2022-10-17T17:23:58;16.50;99.90
23815;DHT22;12088;53.078;8.720;2022-10-17T17:26:25;16.40;99.90
23815;DHT22;12088;53.078;8.720;2022-10-17T17:28:52;16.30;99.90
23815;DHT22;12088;53.078;8.720;2022-10-17T17:31:21;16.60;99.90
23815;DHT22;12088;53.078;8.720;2022-10-17T17:33:47;16.40;99.90
23815;DHT22;12088;53.078;8.720;2022-10-17T17:36:19;16.40;99.90
23815;DHT22;12088;53.078;8.720;2022-10-17T17:38:45;16.30;99.90
23815;DHT22;12088;53.078;8.720;2022-10-17T17:41:12;16.20;99.90